sensor_id;sensor_type;location;lat;lon;timestamp;temperature;humidity
8565;DHT22;4320;51.498;6.556;2023-07-02T00:00:05;19.30;99.90
8565;DHT22;4320;51.498;6.556;2023-07-02T00:02:32;19.30;99.90
8565;DHT22;4320;51.498;6.556;2023-07-02T00:04:57;19.30;99.90
8565;DHT22;4320;51.498;6.556;2023-07-02T00:07:23;19.20;99.90
8565;DHT22;4320;51.498;6.556;2023-07-02T00:09:51;19.30;99.90
8565;DHT22;4320;51.498;6.556;2023-07-02T00:12:17;19.40;99.90
8565;DHT22;4320;51.498;6.556;2023-07-02T00:14:43;19.30;99.90
8565;DHT22;4320;51.498;6.556;2023-07-02T00:17:08;19.30;99.90
8565;DHT22;4320;51.498;6.556;2023-07-02T00:19:38;19.40;99.90
8565;DHT22;4320;51.498;6.556;2023-07-02T00:22:09;19.30;99.90
8565;DHT22;4320;51.498;6.556;2023-07-02T00:24:36;19.30;99.90
8565;DHT22;4320;51.498;6.556;2023-07-02T00:27:02;19.10;99.90
8565;DHT22;4320;51.498;6.556;2023-07-02T00:29:28;19.20;99.90
8565;DHT22;4320;51.498;6.556;2023-07-02T00:31:53;19.20;99.90
8565;DHT22;4320;51.498;6.556;2023-07-02T00:34:19;19.20;99.90
8565;DHT22;4320;51.498;6.556;2023-07-02T00:36:45;19.10;99.90
8565;DHT22;4320;51.498;6.556;2023-07-02T00:39:12;19.20;99.90
8565;DHT22;4320;51.498;6.556;2023-07-02T00:41:38;19.20;99.90
8565;DHT22;4320;51.498;6.556;2023-07-02T00:44:04;19.20;99.90
8565;DHT22;4320;51.498;6.556;2023-07-02T00:46:30;19.20;99.90
8565;DHT22;4320;51.498;6.556;2023-07-02T00:48:56;19.10;99.90
8565;DHT22;4320;51.498;6.556;2023-07-02T00:51:25;19.30;99.90
8565;DHT22;4320;51.498;6.556;2023-07-02T00:53:56;19.20;99.90
8565;DHT22;4320;51.498;6.556;2023-07-02T00:56:23;19.10;99.90
8565;DHT22;4320;51.498;6.556;2023-07-02T00:58:52;19.00;99.90
8565;DHT22;4320;51.498;6.556;2023-07-02T01:01:19;18.90;99.90
8565;DHT22;4320;51.498;6.556;2023-07-02T01:06:23;19.00;99.90
8565;DHT22;4320;51.498;6.556;2023-07-02T01:08:59;18.90;99.90
8565;DHT22;4320;51.498;6.556;2023-07-02T01:11:30;18.90;99.90
8565;DHT22;4320;51.498;6.556;2023-07-02T01:14:04;18.90;99.90
8565;DHT22;4320;51.498;6.556;2023-07-02T01:16:30;18.80;99.90
8565;DHT22;4320;51.498;6.556;2023-07-02T01:18:59;18.60;99.90
8565;DHT22;4320;51.498;6.556;2023-07-02T01:21:28;18.60;99.90
8565;DHT22;4320;51.498;6.556;2023-07-02T01:23:54;18.50;99.90
8565;DHT22;4320;51.498;6.556;2023-07-02T01:26:20;18.80;99.90
8565;DHT22;4320;51.498;6.556;2023-07-02T01:28:46;18.80;99.90
8565;DHT22;4320;51.498;6.556;2023-07-02T01:31:12;18.60;99.90
8565;DHT22;4320;51.498;6.556;2023-07-02T01:33:37;18.60;99.90
8565;DHT22;4320;51.498;6.556;2023-07-02T01:36:03;18.60;99.90
8565;DHT22;4320;51.498;6.556;2023-07-02T01:38:29;18.50;99.90
8565;DHT22;4320;51.498;6.556;2023-07-02T01:40:55;18.50;99.90
8565;DHT22;4320;51.498;6.556;2023-07-02T01:43:21;18.60;99.90
8565;DHT22;4320;51.498;6.556;2023-07-02T01:45:46;18.60;99.90
8565;DHT22;4320;51.498;6.556;2023-07-02T01:48:12;18.60;99.90
8565;DHT22;4320;51.498;6.556;2023-07-02T01:50:38;18.70;99.90
8565;DHT22;4320;51.498;6.556;2023-07-02T01:53:03;18.70;99.90
8565;DHT22;4320;51.498;6.556;2023-07-02T01:55:29;18.60;99.90
8565;DHT22;4320;51.498;6.556;2023-07-02T01:57:54;18.60;99.90
8565;DHT22;4320;51.498;6.556;2023-07-02T02:00:20;18.30;99.90
8565;DHT22;4320;51.498;6.556;2023-07-02T02:02:45;18.40;99.90
8565;DHT22;4320;51.498;6.556;2023-07-02T02:05:11;18.50;99.90
8565;DHT22;4320;51.498;6.556;2023-07-02T02:07:37;18.30;99.90
8565;DHT22;4320;51.498;6.556;2023-07-02T02:10:03;18.20;99.90
8565;DHT22;4320;51.498;6.556;2023-07-02T02:12:30;18.20;99.90
8565;DHT22;4320;51.498;6.556;2023-07-02T02:14:56;18.30;99.90
8565;DHT22;4320;51.498;6.556;2023-07-02T02:17:22;18.30;99.90
8565;DHT22;4320;51.498;6.556;2023-07-02T02:19:49;18.50;99.90
8565;DHT22;4320;51.498;6.556;2023-07-02T02:22:15;18.50;99.90
8565;DHT22;4320;51.498;6.556;2023-07-02T02:24:41;18.60;99.90
8565;DHT22;4320;51.498;6.556;2023-07-02T02:27:07;18.60;99.90
8565;DHT22;4320;51.498;6.556;2023-07-02T02:29:32;18.70;99.90
8565;DHT22;4320;51.498;6.556;2023-07-02T02:31:58;18.70;99.90
8565;DHT22;4320;51.498;6.556;2023-07-02T02:34:23;18.50;99.90
8565;DHT22;4320;51.498;6.556;2023-07-02T02:36:49;18.50;99.90
8565;DHT22;4320;51.498;6.556;2023-07-02T02:39:15;18.50;99.90
8565;DHT22;4320;51.498;6.556;2023-07-02T02:41:41;18.50;99.90
8565;DHT22;4320;51.498;6.556;2023-07-02T02:44:06;18.30;99.90
8565;DHT22;4320;51.498;6.556;2023-07-02T02:46:32;18.30;99.90
8565;DHT22;4320;51.498;6.556;2023-07-02T02:48:58;18.30;99.90
8565;DHT22;4320;51.498;6.556;2023-07-02T02:51:23;18.20;99.90
8565;DHT22;4320;51.498;6.556;2023-07-02T02:53:49;18.20;99.90
8565;DHT22;4320;51.498;6.556;2023-07-02T02:56:14;18.30;99.90
8565;DHT22;4320;51.498;6.556;2023-07-02T02:58:40;18.40;99.90
8565;DHT22;4320;51.498;6.556;2023-07-02T03:01:06;18.30;99.90
8565;DHT22;4320;51.498;6.556;2023-07-02T03:03:39;18.30;99.90
8565;DHT22;4320;51.498;6.556;2023-07-02T03:06:05;18.30;99.90
8565;DHT22;4320;51.498;6.556;2023-07-02T03:08:31;18.30;99.90
8565;DHT22;4320;51.498;6.556;2023-07-02T03:10:57;18.30;99.90
8565;DHT22;4320;51.498;6.556;2023-07-02T03:13:22;18.30;99.90
8565;DHT22;4320;51.498;6.556;2023-07-02T03:15:48;18.30;99.90
8565;DHT22;4320;51.498;6.556;2023-07-02T03:18:13;18.20;99.90
8565;DHT22;4320;51.498;6.556;2023-07-02T03:20:39;18.30;99.90
8565;DHT22;4320;51.498;6.556;2023-07-02T03:23:04;18.30;99.90
8565;DHT22;4320;51.498;6.556;2023-07-02T03:25:30;18.30;99.90
8565;DHT22;4320;51.498;6.556;2023-07-02T03:27:56;18.10;99.90
8565;DHT22;4320;51.498;6.556;2023-07-02T03:30:22;18.10;99.90
8565;DHT22;4320;51.498;6.556;2023-07-02T03:32:47;18.10;99.90
8565;DHT22;4320;51.498;6.556;2023-07-02T03:35:13;18.10;99.90
8565;DHT22;4320;51.498;6.556;2023-07-02T03:37:39;18.30;99.90
8565;DHT22;4320;51.498;6.556;2023-07-02T03:40:07;18.30;99.90
8565;DHT22;4320;51.498;6.556;2023-07-02T03:42:33;18.10;99.90
8565;DHT22;4320;51.498;6.556;2023-07-02T03:44:59;18.20;99.90
8565;DHT22;4320;51.498;6.556;2023-07-02T03:47:25;18.20;99.90
8565;DHT22;4320;51.498;6.556;2023-07-02T03:49:50;18.20;99.90
8565;DHT22;4320;51.498;6.556;2023-07-02T03:52:16;18.10;99.90
8565;DHT22;4320;51.498;6.556;2023-07-02T03:54:41;18.20;99.90
8565;DHT22;4320;51.498;6.556;2023-07-02T03:57:07;18.30;99.90
8565;DHT22;4320;51.498;6.556;2023-07-02T03:59:34;18.20;99.90
8565;DHT22;4320;51.498;6.556;2023-07-02T04:02:00;18.30;99.90
8565;DHT22;4320;51.498;6.556;2023-07-02T04:04:25;18.50;99.90
8565;DHT22;4320;51.498;6.556;2023-07-02T04:06:51;18.30;99.90
8565;DHT22;4320;51.498;6.556;2023-07-02T04:09:16;18.30;99.90
8565;DHT22;4320;51.498;6.556;2023-07-02T04:11:43;18.40;99.90
8565;DHT22;4320;51.498;6.556;2023-07-02T04:14:09;18.40;99.90
8565;DHT22;4320;51.498;6.556;2023-07-02T04:16:35;18.40;99.90
8565;DHT22;4320;51.498;6.556;2023-07-02T04:19:00;18.40;99.90
8565;DHT22;4320;51.498;6.556;2023-07-02T04:21:26;18.40;99.90
8565;DHT22;4320;51.498;6.556;2023-07-02T04:23:51;18.40;99.90
8565;DHT22;4320;51.498;6.556;2023-07-02T04:26:17;18.40;99.90
8565;DHT22;4320;51.498;6.556;2023-07-02T04:28:43;18.40;99.90
8565;DHT22;4320;51.498;6.556;2023-07-02T04:31:09;18.30;99.90
8565;DHT22;4320;51.498;6.556;2023-07-02T04:33:34;18.20;99.90
8565;DHT22;4320;51.498;6.556;2023-07-02T04:36:04;18.30;99.90
8565;DHT22;4320;51.498;6.556;2023-07-02T04:38:29;18.20;99.90
8565;DHT22;4320;51.498;6.556;2023-07-02T04:40:55;18.30;99.90
8565;DHT22;4320;51.498;6.556;2023-07-02T04:43:27;18.40;99.90
8565;DHT22;4320;51.498;6.556;2023-07-02T04:45:55;18.50;99.90
8565;DHT22;4320;51.498;6.556;2023-07-02T04:48:20;18.50;99.90
8565;DHT22;4320;51.498;6.556;2023-07-02T04:50:46;18.40;99.90
8565;DHT22;4320;51.498;6.556;2023-07-02T04:53:11;18.30;99.90
8565;DHT22;4320;51.498;6.556;2023-07-02T04:55:37;18.20;99.90
8565;DHT22;4320;51.498;6.556;2023-07-02T04:58:03;18.40;99.90
8565;DHT22;4320;51.498;6.556;2023-07-02T05:00:28;18.40;99.90
8565;DHT22;4320;51.498;6.556;2023-07-02T05:02:54;18.50;99.90
8565;DHT22;4320;51.498;6.556;2023-07-02T05:05:19;18.30;99.90
8565;DHT22;4320;51.498;6.556;2023-07-02T05:07:45;18.40;99.90
8565;DHT22;4320;51.498;6.556;2023-07-02T05:10:11;18.50;99.90
8565;DHT22;4320;51.498;6.556;2023-07-02T05:12:36;18.60;99.90
8565;DHT22;4320;51.498;6.556;2023-07-02T05:15:02;18.50;99.90
8565;DHT22;4320;51.498;6.556;2023-07-02T05:17:28;18.60;99.90
8565;DHT22;4320;51.498;6.556;2023-07-02T05:19:53;18.50;99.90
8565;DHT22;4320;51.498;6.556;2023-07-02T05:22:19;18.60;99.90
8565;DHT22;4320;51.498;6.556;2023-07-02T05:24:45;18.60;99.90
8565;DHT22;4320;51.498;6.556;2023-07-02T05:27:11;18.60;99.90
8565;DHT22;4320;51.498;6.556;2023-07-02T05:29:37;18.60;99.90
8565;DHT22;4320;51.498;6.556;2023-07-02T05:32:03;18.80;99.90
8565;DHT22;4320;51.498;6.556;2023-07-02T05:34:28;19.00;99.90
8565;DHT22;4320;51.498;6.556;2023-07-02T05:36:54;18.90;99.90
8565;DHT22;4320;51.498;6.556;2023-07-02T05:39:20;18.90;99.90
8565;DHT22;4320;51.498;6.556;2023-07-02T05:41:47;19.10;99.90
8565;DHT22;4320;51.498;6.556;2023-07-02T05:44:12;19.00;99.90
8565;DHT22;4320;51.498;6.556;2023-07-02T05:46:38;19.10;99.90
8565;DHT22;4320;51.498;6.556;2023-07-02T05:49:05;19.00;99.90
8565;DHT22;4320;51.498;6.556;2023-07-02T05:51:31;19.10;99.90
8565;DHT22;4320;51.498;6.556;2023-07-02T05:53:57;19.20;99.90
8565;DHT22;4320;51.498;6.556;2023-07-02T05:56:22;19.20;99.90
8565;DHT22;4320;51.498;6.556;2023-07-02T05:58:48;19.10;99.90
8565;DHT22;4320;51.498;6.556;2023-07-02T06:01:15;19.10;99.90
8565;DHT22;4320;51.498;6.556;2023-07-02T06:03:41;19.00;97.10
8565;DHT22;4320;51.498;6.556;2023-07-02T06:06:08;19.00;93.50
8565;DHT22;4320;51.498;6.556;2023-07-02T06:08:34;19.00;87.30
8565;DHT22;4320;51.498;6.556;2023-07-02T06:10:59;19.10;85.30
8565;DHT22;4320;51.498;6.556;2023-07-02T06:13:25;19.30;82.30
8565;DHT22;4320;51.498;6.556;2023-07-02T06:15:51;19.30;78.80
8565;DHT22;4320;51.498;6.556;2023-07-02T06:18:16;19.60;73.60
8565;DHT22;4320;51.498;6.556;2023-07-02T06:20:43;19.70;58.30
8565;DHT22;4320;51.498;6.556;2023-07-02T06:23:08;19.70;49.40
8565;DHT22;4320;51.498;6.556;2023-07-02T06:25:34;19.50;45.70
8565;DHT22;4320;51.498;6.556;2023-07-02T06:28:00;19.40;36.90
8565;DHT22;4320;51.498;6.556;2023-07-02T06:30:26;19.50;37.80
8565;DHT22;4320;51.498;6.556;2023-07-02T06:32:52;19.50;32.10
8565;DHT22;4320;51.498;6.556;2023-07-02T06:35:17;19.60;26.30
8565;DHT22;4320;51.498;6.556;2023-07-02T06:37:43;19.50;19.30
8565;DHT22;4320;51.498;6.556;2023-07-02T06:40:09;19.40;10.50
8565;DHT22;4320;51.498;6.556;2023-07-02T06:42:35;19.40;4.00
8565;DHT22;4320;51.498;6.556;2023-07-02T06:45:04;19.40;4.20
8565;DHT22;4320;51.498;6.556;2023-07-02T06:47:30;19.30;4.10
8565;DHT22;4320;51.498;6.556;2023-07-02T06:49:56;19.30;2.50
8565;DHT22;4320;51.498;6.556;2023-07-02T06:52:21;19.20;1.00
8565;DHT22;4320;51.498;6.556;2023-07-02T06:54:47;19.30;1.00
8565;DHT22;4320;51.498;6.556;2023-07-02T06:57:13;19.20;1.00
8565;DHT22;4320;51.498;6.556;2023-07-02T06:59:39;19.40;1.00
8565;DHT22;4320;51.498;6.556;2023-07-02T07:02:04;19.40;1.00
8565;DHT22;4320;51.498;6.556;2023-07-02T07:04:30;19.60;1.00
8565;DHT22;4320;51.498;6.556;2023-07-02T07:06:55;19.70;1.00
8565;DHT22;4320;51.498;6.556;2023-07-02T07:09:22;19.50;1.00
8565;DHT22;4320;51.498;6.556;2023-07-02T07:11:47;19.20;1.00
8565;DHT22;4320;51.498;6.556;2023-07-02T07:14:13;19.30;1.00
8565;DHT22;4320;51.498;6.556;2023-07-02T07:16:39;19.20;1.00
8565;DHT22;4320;51.498;6.556;2023-07-02T07:19:05;19.30;1.00
8565;DHT22;4320;51.498;6.556;2023-07-02T07:21:31;19.30;1.00
8565;DHT22;4320;51.498;6.556;2023-07-02T07:23:57;19.30;1.00
8565;DHT22;4320;51.498;6.556;2023-07-02T07:26:22;19.30;1.00
8565;DHT22;4320;51.498;6.556;2023-07-02T07:28:48;19.30;1.00
8565;DHT22;4320;51.498;6.556;2023-07-02T07:31:14;19.20;1.00
8565;DHT22;4320;51.498;6.556;2023-07-02T07:33:40;19.50;1.00
8565;DHT22;4320;51.498;6.556;2023-07-02T07:36:06;19.50;1.00
8565;DHT22;4320;51.498;6.556;2023-07-02T07:38:32;19.60;1.00
8565;DHT22;4320;51.498;6.556;2023-07-02T07:40:57;19.60;1.00
8565;DHT22;4320;51.498;6.556;2023-07-02T07:43:23;19.90;1.00
8565;DHT22;4320;51.498;6.556;2023-07-02T07:45:49;19.80;1.00
8565;DHT22;4320;51.498;6.556;2023-07-02T07:48:14;19.80;1.00
8565;DHT22;4320;51.498;6.556;2023-07-02T07:50:40;20.00;1.00
8565;DHT22;4320;51.498;6.556;2023-07-02T07:53:06;20.10;1.00
8565;DHT22;4320;51.498;6.556;2023-07-02T07:55:31;20.00;1.00
8565;DHT22;4320;51.498;6.556;2023-07-02T07:57:57;20.00;1.00
8565;DHT22;4320;51.498;6.556;2023-07-02T08:00:22;19.90;1.00
8565;DHT22;4320;51.498;6.556;2023-07-02T08:02:50;20.00;1.00
8565;DHT22;4320;51.498;6.556;2023-07-02T08:05:17;19.80;1.00
8565;DHT22;4320;51.498;6.556;2023-07-02T08:07:43;20.20;1.00
8565;DHT22;4320;51.498;6.556;2023-07-02T08:10:09;19.70;1.00
8565;DHT22;4320;51.498;6.556;2023-07-02T08:12:35;20.10;1.00
8565;DHT22;4320;51.498;6.556;2023-07-02T08:15:01;20.20;1.00
8565;DHT22;4320;51.498;6.556;2023-07-02T08:17:26;20.10;1.00
8565;DHT22;4320;51.498;6.556;2023-07-02T08:19:52;20.40;1.00
8565;DHT22;4320;51.498;6.556;2023-07-02T08:22:17;20.30;1.00
8565;DHT22;4320;51.498;6.556;2023-07-02T08:24:43;19.90;1.00
8565;DHT22;4320;51.498;6.556;2023-07-02T08:27:09;19.60;1.00
8565;DHT22;4320;51.498;6.556;2023-07-02T08:29:36;19.80;1.00
8565;DHT22;4320;51.498;6.556;2023-07-02T08:32:01;20.10;1.00
8565;DHT22;4320;51.498;6.556;2023-07-02T08:34:27;20.50;1.00
8565;DHT22;4320;51.498;6.556;2023-07-02T08:36:53;20.50;1.00
8565;DHT22;4320;51.498;6.556;2023-07-02T08:39:22;20.50;1.00
8565;DHT22;4320;51.498;6.556;2023-07-02T08:41:48;20.50;1.00
8565;DHT22;4320;51.498;6.556;2023-07-02T08:44:16;20.50;1.00
8565;DHT22;4320;51.498;6.556;2023-07-02T08:46:44;20.20;1.00
8565;DHT22;4320;51.498;6.556;2023-07-02T08:49:10;20.30;1.00
8565;DHT22;4320;51.498;6.556;2023-07-02T08:51:36;20.50;1.00
8565;DHT22;4320;51.498;6.556;2023-07-02T08:54:02;20.30;1.00
8565;DHT22;4320;51.498;6.556;2023-07-02T08:56:28;20.30;1.00
8565;DHT22;4320;51.498;6.556;2023-07-02T08:58:54;20.10;1.00
8565;DHT22;4320;51.498;6.556;2023-07-02T09:01:20;20.20;1.00
8565;DHT22;4320;51.498;6.556;2023-07-02T09:03:46;20.00;1.00
8565;DHT22;4320;51.498;6.556;2023-07-02T09:06:12;20.20;1.00
8565;DHT22;4320;51.498;6.556;2023-07-02T09:08:38;20.20;1.00
8565;DHT22;4320;51.498;6.556;2023-07-02T09:11:10;20.70;1.00
8565;DHT22;4320;51.498;6.556;2023-07-02T09:13:47;20.70;1.00
8565;DHT22;4320;51.498;6.556;2023-07-02T09:16:26;20.50;1.00
8565;DHT22;4320;51.498;6.556;2023-07-02T09:19:10;20.40;1.00
8565;DHT22;4320;51.498;6.556;2023-07-02T09:21:48;20.50;1.00
8565;DHT22;4320;51.498;6.556;2023-07-02T09:24:25;20.40;1.00
8565;DHT22;4320;51.498;6.556;2023-07-02T09:26:51;20.30;1.00
8565;DHT22;4320;51.498;6.556;2023-07-02T09:29:29;20.40;1.00
8565;DHT22;4320;51.498;6.556;2023-07-02T09:31:57;20.50;1.00
8565;DHT22;4320;51.498;6.556;2023-07-02T09:34:30;20.60;1.00
8565;DHT22;4320;51.498;6.556;2023-07-02T09:36:57;20.60;1.00
8565;DHT22;4320;51.498;6.556;2023-07-02T09:39:30;20.60;1.00
8565;DHT22;4320;51.498;6.556;2023-07-02T09:41:57;20.50;1.00
8565;DHT22;4320;51.498;6.556;2023-07-02T09:44:30;20.20;1.00
8565;DHT22;4320;51.498;6.556;2023-07-02T09:47:01;20.60;1.00
8565;DHT22;4320;51.498;6.556;2023-07-02T09:49:31;20.50;1.00
8565;DHT22;4320;51.498;6.556;2023-07-02T09:52:00;20.50;1.00
8565;DHT22;4320;51.498;6.556;2023-07-02T09:54:26;20.70;1.00
8565;DHT22;4320;51.498;6.556;2023-07-02T09:56:52;20.60;1.00
8565;DHT22;4320;51.498;6.556;2023-07-02T09:59:17;20.70;1.00
8565;DHT22;4320;51.498;6.556;2023-07-02T10:01:43;20.60;1.00
8565;DHT22;4320;51.498;6.556;2023-07-02T10:04:16;20.30;1.00
8565;DHT22;4320;51.498;6.556;2023-07-02T10:06:54;20.40;1.00
8565;DHT22;4320;51.498;6.556;2023-07-02T10:09:21;20.80;1.00
8565;DHT22;4320;51.498;6.556;2023-07-02T10:11:47;21.00;1.00
8565;DHT22;4320;51.498;6.556;2023-07-02T10:14:14;21.20;1.00
8565;DHT22;4320;51.498;6.556;2023-07-02T10:17:09;21.20;1.00
8565;DHT22;4320;51.498;6.556;2023-07-02T10:19:34;21.50;1.00
8565;DHT22;4320;51.498;6.556;2023-07-02T10:22:04;21.50;1.00
8565;DHT22;4320;51.498;6.556;2023-07-02T10:24:30;21.20;1.00
8565;DHT22;4320;51.498;6.556;2023-07-02T10:27:00;20.90;1.00
8565;DHT22;4320;51.498;6.556;2023-07-02T10:29:27;20.70;1.00
8565;DHT22;4320;51.498;6.556;2023-07-02T10:31:57;20.70;1.00
8565;DHT22;4320;51.498;6.556;2023-07-02T10:36:55;20.80;1.00
8565;DHT22;4320;51.498;6.556;2023-07-02T10:39:21;20.80;1.00
8565;DHT22;4320;51.498;6.556;2023-07-02T10:41:46;20.90;1.00
8565;DHT22;4320;51.498;6.556;2023-07-02T10:44:12;21.00;1.00
8565;DHT22;4320;51.498;6.556;2023-07-02T10:46:48;21.30;1.00
8565;DHT22;4320;51.498;6.556;2023-07-02T10:49:16;21.50;1.00
8565;DHT22;4320;51.498;6.556;2023-07-02T10:51:42;21.50;1.00
8565;DHT22;4320;51.498;6.556;2023-07-02T10:54:08;21.40;1.00
8565;DHT22;4320;51.498;6.556;2023-07-02T10:56:34;21.50;1.00
8565;DHT22;4320;51.498;6.556;2023-07-02T10:59:00;21.50;1.00
8565;DHT22;4320;51.498;6.556;2023-07-02T11:01:31;21.60;1.00
8565;DHT22;4320;51.498;6.556;2023-07-02T11:04:03;21.50;1.00
8565;DHT22;4320;51.498;6.556;2023-07-02T11:06:31;21.80;1.00
8565;DHT22;4320;51.498;6.556;2023-07-02T11:08:58;21.80;1.00
8565;DHT22;4320;51.498;6.556;2023-07-02T11:11:25;21.90;1.00
8565;DHT22;4320;51.498;6.556;2023-07-02T11:13:51;21.50;1.00
8565;DHT22;4320;51.498;6.556;2023-07-02T11:16:25;21.50;1.00
8565;DHT22;4320;51.498;6.556;2023-07-02T11:19:05;21.50;1.00
8565;DHT22;4320;51.498;6.556;2023-07-02T11:21:32;21.70;1.00
8565;DHT22;4320;51.498;6.556;2023-07-02T11:24:04;21.40;1.00
8565;DHT22;4320;51.498;6.556;2023-07-02T11:26:37;21.40;1.00
8565;DHT22;4320;51.498;6.556;2023-07-02T11:29:03;21.30;1.00
8565;DHT22;4320;51.498;6.556;2023-07-02T11:31:28;21.60;1.00
8565;DHT22;4320;51.498;6.556;2023-07-02T11:33:54;21.60;1.00
8565;DHT22;4320;51.498;6.556;2023-07-02T11:36:22;21.60;1.00
8565;DHT22;4320;51.498;6.556;2023-07-02T11:38:51;21.70;1.00
8565;DHT22;4320;51.498;6.556;2023-07-02T11:41:18;22.00;1.00
8565;DHT22;4320;51.498;6.556;2023-07-02T11:43:43;22.30;1.00
8565;DHT22;4320;51.498;6.556;2023-07-02T11:46:09;22.80;1.00
8565;DHT22;4320;51.498;6.556;2023-07-02T11:48:35;22.80;1.00
8565;DHT22;4320;51.498;6.556;2023-07-02T11:51:00;22.60;1.00
8565;DHT22;4320;51.498;6.556;2023-07-02T11:53:26;22.40;1.00
8565;DHT22;4320;51.498;6.556;2023-07-02T11:55:51;22.20;1.00
8565;DHT22;4320;51.498;6.556;2023-07-02T11:58:17;21.80;1.00
8565;DHT22;4320;51.498;6.556;2023-07-02T12:00:43;21.50;1.00
8565;DHT22;4320;51.498;6.556;2023-07-02T12:03:08;21.70;1.00
8565;DHT22;4320;51.498;6.556;2023-07-02T12:05:35;21.90;1.00
8565;DHT22;4320;51.498;6.556;2023-07-02T12:08:02;22.50;1.00
8565;DHT22;4320;51.498;6.556;2023-07-02T12:10:28;23.10;1.00
8565;DHT22;4320;51.498;6.556;2023-07-02T12:12:53;23.40;1.00
8565;DHT22;4320;51.498;6.556;2023-07-02T12:15:19;23.30;1.00
8565;DHT22;4320;51.498;6.556;2023-07-02T12:17:44;23.20;1.00
8565;DHT22;4320;51.498;6.556;2023-07-02T12:20:10;22.80;1.00
8565;DHT22;4320;51.498;6.556;2023-07-02T12:22:36;22.60;1.00
8565;DHT22;4320;51.498;6.556;2023-07-02T12:25:02;22.60;1.00
8565;DHT22;4320;51.498;6.556;2023-07-02T12:27:27;23.10;1.00
8565;DHT22;4320;51.498;6.556;2023-07-02T12:29:53;23.10;1.00
8565;DHT22;4320;51.498;6.556;2023-07-02T12:32:20;23.70;1.00
8565;DHT22;4320;51.498;6.556;2023-07-02T12:34:46;23.50;1.00
8565;DHT22;4320;51.498;6.556;2023-07-02T12:37:11;23.70;1.00
8565;DHT22;4320;51.498;6.556;2023-07-02T12:39:42;23.50;1.00
8565;DHT22;4320;51.498;6.556;2023-07-02T12:42:08;23.50;1.00
8565;DHT22;4320;51.498;6.556;2023-07-02T12:44:33;23.70;1.00
8565;DHT22;4320;51.498;6.556;2023-07-02T12:46:59;23.50;1.00
8565;DHT22;4320;51.498;6.556;2023-07-02T12:49:24;23.60;1.00
8565;DHT22;4320;51.498;6.556;2023-07-02T12:51:50;23.80;1.00
8565;DHT22;4320;51.498;6.556;2023-07-02T12:54:15;23.90;1.00
8565;DHT22;4320;51.498;6.556;2023-07-02T12:56:41;23.80;1.00
8565;DHT22;4320;51.498;6.556;2023-07-02T12:59:07;23.60;1.00
8565;DHT22;4320;51.498;6.556;2023-07-02T13:01:32;23.50;1.00
8565;DHT22;4320;51.498;6.556;2023-07-02T13:03:58;23.00;1.00
8565;DHT22;4320;51.498;6.556;2023-07-02T13:06:25;22.80;1.00
8565;DHT22;4320;51.498;6.556;2023-07-02T13:08:50;22.70;1.00
8565;DHT22;4320;51.498;6.556;2023-07-02T13:11:16;22.70;1.00
8565;DHT22;4320;51.498;6.556;2023-07-02T13:13:41;22.60;1.00
8565;DHT22;4320;51.498;6.556;2023-07-02T13:16:07;23.20;1.00
8565;DHT22;4320;51.498;6.556;2023-07-02T13:18:33;23.50;1.00
8565;DHT22;4320;51.498;6.556;2023-07-02T13:20:58;23.70;1.00
8565;DHT22;4320;51.498;6.556;2023-07-02T13:23:24;23.50;1.00
8565;DHT22;4320;51.498;6.556;2023-07-02T13:25:50;23.80;1.00
8565;DHT22;4320;51.498;6.556;2023-07-02T13:28:15;23.90;1.00
8565;DHT22;4320;51.498;6.556;2023-07-02T13:30:42;23.70;1.00
8565;DHT22;4320;51.498;6.556;2023-07-02T13:33:07;23.80;1.00
8565;DHT22;4320;51.498;6.556;2023-07-02T13:35:33;24.10;1.00
8565;DHT22;4320;51.498;6.556;2023-07-02T13:37:58;24.00;1.00
8565;DHT22;4320;51.498;6.556;2023-07-02T13:40:25;23.70;1.00
8565;DHT22;4320;51.498;6.556;2023-07-02T13:42:51;23.60;1.00
8565;DHT22;4320;51.498;6.556;2023-07-02T13:45:16;23.60;1.00
8565;DHT22;4320;51.498;6.556;2023-07-02T13:47:42;23.50;1.00
8565;DHT22;4320;51.498;6.556;2023-07-02T13:50:08;23.10;1.00
8565;DHT22;4320;51.498;6.556;2023-07-02T13:52:33;22.80;1.00
8565;DHT22;4320;51.498;6.556;2023-07-02T13:54:59;23.20;1.00
8565;DHT22;4320;51.498;6.556;2023-07-02T13:57:25;23.10;1.00
8565;DHT22;4320;51.498;6.556;2023-07-02T13:59:50;23.00;1.00
8565;DHT22;4320;51.498;6.556;2023-07-02T14:02:16;22.90;1.00
8565;DHT22;4320;51.498;6.556;2023-07-02T14:04:42;22.90;1.00
8565;DHT22;4320;51.498;6.556;2023-07-02T14:07:07;23.20;1.00
8565;DHT22;4320;51.498;6.556;2023-07-02T14:09:33;23.10;1.00
8565;DHT22;4320;51.498;6.556;2023-07-02T14:11:59;22.90;1.00
8565;DHT22;4320;51.498;6.556;2023-07-02T14:14:24;23.00;1.00
8565;DHT22;4320;51.498;6.556;2023-07-02T14:16:50;23.30;1.00
8565;DHT22;4320;51.498;6.556;2023-07-02T14:19:15;23.30;1.00
8565;DHT22;4320;51.498;6.556;2023-07-02T14:21:43;23.40;1.00
8565;DHT22;4320;51.498;6.556;2023-07-02T14:24:09;23.50;1.00
8565;DHT22;4320;51.498;6.556;2023-07-02T14:26:34;23.10;1.00
8565;DHT22;4320;51.498;6.556;2023-07-02T14:29:00;23.30;1.00
8565;DHT22;4320;51.498;6.556;2023-07-02T14:31:26;23.30;1.00
8565;DHT22;4320;51.498;6.556;2023-07-02T14:33:51;23.20;1.00
8565;DHT22;4320;51.498;6.556;2023-07-02T14:36:17;23.00;1.00
8565;DHT22;4320;51.498;6.556;2023-07-02T14:38:42;22.90;1.00
8565;DHT22;4320;51.498;6.556;2023-07-02T14:41:09;22.80;1.00
8565;DHT22;4320;51.498;6.556;2023-07-02T14:43:34;22.90;1.00
8565;DHT22;4320;51.498;6.556;2023-07-02T14:46:02;22.70;1.00
8565;DHT22;4320;51.498;6.556;2023-07-02T14:48:28;23.20;1.00
8565;DHT22;4320;51.498;6.556;2023-07-02T14:50:56;23.50;1.00
8565;DHT22;4320;51.498;6.556;2023-07-02T14:53:23;23.40;1.00
8565;DHT22;4320;51.498;6.556;2023-07-02T14:55:49;23.40;1.00
8565;DHT22;4320;51.498;6.556;2023-07-02T14:58:16;23.60;1.00
8565;DHT22;4320;51.498;6.556;2023-07-02T15:00:47;23.20;1.00
8565;DHT22;4320;51.498;6.556;2023-07-02T15:03:13;23.00;1.00
8565;DHT22;4320;51.498;6.556;2023-07-02T15:05:39;22.60;1.00
8565;DHT22;4320;51.498;6.556;2023-07-02T15:08:09;22.60;1.00
8565;DHT22;4320;51.498;6.556;2023-07-02T15:10:39;22.70;1.00
8565;DHT22;4320;51.498;6.556;2023-07-02T15:13:06;22.80;1.00
8565;DHT22;4320;51.498;6.556;2023-07-02T15:15:32;22.70;1.00
8565;DHT22;4320;51.498;6.556;2023-07-02T15:17:58;22.80;1.00
8565;DHT22;4320;51.498;6.556;2023-07-02T15:20:24;22.90;1.00
8565;DHT22;4320;51.498;6.556;2023-07-02T15:22:50;23.10;1.00
8565;DHT22;4320;51.498;6.556;2023-07-02T15:25:16;23.40;1.00
8565;DHT22;4320;51.498;6.556;2023-07-02T15:27:41;23.60;1.00
8565;DHT22;4320;51.498;6.556;2023-07-02T15:30:07;23.70;1.00
8565;DHT22;4320;51.498;6.556;2023-07-02T15:32:33;23.60;1.00
8565;DHT22;4320;51.498;6.556;2023-07-02T15:34:59;23.20;1.00
8565;DHT22;4320;51.498;6.556;2023-07-02T15:37:24;23.30;1.00
8565;DHT22;4320;51.498;6.556;2023-07-02T15:39:50;23.30;1.00
8565;DHT22;4320;51.498;6.556;2023-07-02T15:42:16;23.30;1.00
8565;DHT22;4320;51.498;6.556;2023-07-02T15:44:41;22.90;1.00
8565;DHT22;4320;51.498;6.556;2023-07-02T15:47:07;23.20;1.00
8565;DHT22;4320;51.498;6.556;2023-07-02T15:49:32;23.00;1.00
8565;DHT22;4320;51.498;6.556;2023-07-02T15:51:58;23.10;1.00
8565;DHT22;4320;51.498;6.556;2023-07-02T15:54:24;23.20;1.00
8565;DHT22;4320;51.498;6.556;2023-07-02T15:56:50;23.30;1.00
8565;DHT22;4320;51.498;6.556;2023-07-02T15:59:15;23.50;1.00
8565;DHT22;4320;51.498;6.556;2023-07-02T16:01:42;23.40;1.00
8565;DHT22;4320;51.498;6.556;2023-07-02T16:04:10;22.90;1.00
8565;DHT22;4320;51.498;6.556;2023-07-02T16:06:36;22.80;1.00
8565;DHT22;4320;51.498;6.556;2023-07-02T16:09:03;22.90;1.00
8565;DHT22;4320;51.498;6.556;2023-07-02T16:11:29;23.10;1.00